Loretto, Pennsylvania
Current Conditions -  °F | °C
As of 5:54 PM on Wednesday 22 Oct 2014 (Local Time) from KJST Reporting Station
Overcast Overcast  
Wind Chill: 36°   Ceiling: 800
Heat Index: 43°   Visibility: 10mi
Dew Point: 39°   Wind: 15mph
Humidity: 86%   Direction: 330°NNW
Pressure: 30.09"   Gusts: NA
Location:  40.5°N, 78.63°W
Report Text: KJST 222154Z AUTO 33013KT 10SM OVC008 06/04 A3009 RMK AO2 SLP199 T00610039
Loading
Personal Weather Stations






























Interactive Weather Map
Tropical Storm Tracking
New forecast layout! Learn more

10-Day Weather Forecast

Advertisements
Track Severe Weather on mobile